Time;durP1;ratioP1;P1;durP2;ratioP2;P2;SDS_P1;SDS_P2;PMS_P1;PMS_P2;Temp;Humidity;BMP_temperature;BMP_pressure;BME280_temperature;BME280_humidity;BME280_pressure;Samples;Min_cycle;Max_cycle;Signal;HPM_P1;HPM_P2
2022/11/23 00:02:59;;;;;;;3.45;1.90;;;21.90;92.40;;;;;;6280597;27;88019;-66
2022/11/23 00:06:03;;;;;;;2.70;1.90;;;21.90;92.50;;;;;;6279377;27;89399;-66
2022/11/23 00:09:06;;;;;;;3.78;2.35;;;21.90;92.40;;;;;;6279597;27;90051;-67
2022/11/23 00:12:08;;;;;;;2.45;1.90;;;21.80;92.40;;;;;;6281998;27;89084;-67
2022/11/23 00:15:12;;;;;;;2.50;1.83;;;21.80;92.50;;;;;;6279942;27;89213;-67
2022/11/23 00:18:15;;;;;;;2.38;1.90;;;21.80;92.50;;;;;;6278458;27;89228;-67
2022/11/23 00:21:20;;;;;;;3.83;2.45;;;21.80;92.60;;;;;;6278801;27;88698;-67
2022/11/23 00:24:22;;;;;;;2.10;1.70;;;21.90;92.60;;;;;;6279886;27;89161;-67
2022/11/23 00:27:24;;;;;;;2.40;1.80;;;21.80;92.50;;;;;;6269661;27;89666;-66
2022/11/23 00:30:27;;;;;;;1.63;1.52;;;21.80;92.50;;;;;;6284773;27;88517;-67
2022/11/23 00:33:29;;;;;;;1.75;1.60;;;21.80;92.50;;;;;;6282056;27;87935;-67
2022/11/23 00:36:33;;;;;;;2.88;2.00;;;21.80;92.60;;;;;;6283862;27;89178;-67
2022/11/23 00:39:35;;;;;;;2.33;1.85;;;21.80;92.50;;;;;;6284082;27;90503;-66
2022/11/23 00:42:37;;;;;;;2.08;1.70;;;21.70;92.50;;;;;;6283161;27;89323;-66
2022/11/23 00:45:39;;;;;;;2.80;2.08;;;21.70;92.50;;;;;;6283902;27;89039;-67
2022/11/23 00:48:41;;;;;;;3.33;2.05;;;21.70;92.50;;;;;;6283926;27;88706;-67
2022/11/23 00:51:44;;;;;;;3.00;1.80;;;21.70;92.40;;;;;;6285082;27;88605;-67
2022/11/23 00:54:47;;;;;;;2.40;1.85;;;21.70;92.50;;;;;;6283133;27;89300;-66
2022/11/23 00:57:48;;;;;;;1.90;1.80;;;21.70;92.50;;;;;;6281210;27;89217;-67
2022/11/23 01:00:51;;;;;;;2.33;1.73;;;21.70;92.60;;;;;;6283636;27;88394;-66
2022/11/23 01:03:55;;;;;;;2.83;1.70;;;21.70;92.60;;;;;;6283925;27;88307;-66
2022/11/23 01:06:58;;;;;;;2.30;1.90;;;21.70;92.50;;;;;;6273497;27;89242;-66
2022/11/23 01:10:00;;;;;;;3.05;2.00;;;21.70;92.40;;;;;;6281923;27;90505;-67
2022/11/23 01:13:02;;;;;;;2.75;2.00;;;21.70;92.40;;;;;;6284816;27;89152;-67
2022/11/23 01:16:04;;;;;;;2.05;1.85;;;21.70;92.40;;;;;;6281534;27;89254;-67
2022/11/23 01:19:08;;;;;;;3.38;2.20;;;21.60;92.40;;;;;;6283840;27;89025;-67
2022/11/23 01:22:11;;;;;;;2.40;1.88;;;21.60;92.40;;;;;;6284048;27;88164;-66
2022/11/23 01:25:14;;;;;;;2.25;1.88;;;21.60;92.40;;;;;;6275104;27;89373;-66
2022/11/23 01:28:16;;;;;;;1.88;1.67;;;21.60;92.40;;;;;;6274110;27;89203;-66
2022/11/23 01:31:19;;;;;;;2.10;1.80;;;21.60;92.40;;;;;;6278107;27;88436;-66
2022/11/23 01:34:21;;;;;;;3.00;1.80;;;21.60;92.40;;;;;;6282891;27;89064;-66
2022/11/23 01:37:25;;;;;;;2.95;2.15;;;21.60;92.40;;;;;;6282187;27;89248;-67
2022/11/23 01:40:27;;;;;;;2.08;1.80;;;21.60;92.50;;;;;;6279802;27;90211;-67
2022/11/23 01:43:29;;;;;;;2.10;1.80;;;21.60;92.50;;;;;;6281762;27;89621;-66
2022/11/23 01:46:31;;;;;;;5.40;2.28;;;21.60;92.40;;;;;;6282543;27;89305;-67
2022/11/23 01:49:36;;;;;;;2.47;1.92;;;21.50;91.40;;;;;;6282026;27;89225;-67
2022/11/23 01:52:39;;;;;;;2.63;1.80;;;21.50;90.90;;;;;;6275622;27;88913;-67
2022/11/23 01:55:43;;;;;;;2.75;1.80;;;21.60;91.20;;;;;;6281695;27;89293;-66
2022/11/23 01:58:48;;;;;;;3.60;1.70;;;21.50;91.50;;;;;;6282206;27;89108;-67
2022/11/23 02:01:50;;;;;;;3.00;2.20;;;21.50;91.70;;;;;;6275206;27;87369;-66
2022/11/23 02:04:55;;;;;;;2.55;1.98;;;21.50;91.80;;;;;;6282208;27;89104;-66
2022/11/23 02:08:00;;;;;;;2.60;2.00;;;21.50;91.80;;;;;;6282684;27;88111;-66
2022/11/23 02:11:03;;;;;;;2.67;2.00;;;21.50;91.80;;;;;;6282009;27;90166;-67
2022/11/23 02:14:05;;;;;;;2.05;1.70;;;21.50;91.80;;;;;;6276414;27;88945;-67
2022/11/23 02:17:07;;;;;;;2.10;1.90;;;21.50;91.90;;;;;;6268704;27;89286;-66
2022/11/23 02:20:11;;;;;;;4.15;2.65;;;21.50;92.00;;;;;;6278787;27;89195;-67
2022/11/23 02:23:27;;;;;;;2.65;1.98;;;21.50;92.00;;;;;;6282424;27;89220;-66
2022/11/23 02:26:34;;;;;;;3.28;2.03;;;21.40;91.90;;;;;;6279146;27;89148;-67
2022/11/23 02:29:36;;;;;;;2.72;1.80;;;21.50;92.00;;;;;;6282505;27;89691;-66
2022/11/23 02:32:39;;;;;;;2.05;1.85;;;21.40;92.00;;;;;;6265249;27;87633;-66
2022/11/23 02:35:49;;;;;;;2.55;1.95;;;21.40;92.00;;;;;;6272081;27;89209;-67
2022/11/23 02:38:51;;;;;;;3.05;2.00;;;21.40;92.00;;;;;;6281216;27;89205;-66
2022/11/23 02:41:55;;;;;;;3.42;2.20;;;21.40;92.00;;;;;;6280870;27;90186;-67
2022/11/23 02:45:08;;;;;;;2.25;1.92;;;21.40;92.00;;;;;;6279086;27;89243;-66
2022/11/23 02:48:11;;;;;;;2.28;1.90;;;21.40;92.40;;;;;;6279597;27;89121;-67
2022/11/23 02:51:12;;;;;;;2.13;1.83;;;21.40;92.00;;;;;;6262814;27;89222;-66
2022/11/23 02:54:14;;;;;;;4.15;2.53;;;21.40;92.00;;;;;;6262809;27;88246;-66
2022/11/23 02:57:18;;;;;;;1.88;1.63;;;21.40;92.00;;;;;;6281556;27;89370;-66
2022/11/23 03:00:20;;;;;;;1.90;1.70;;;21.40;92.00;;;;;;6258166;27;89170;-66
2022/11/23 03:03:22;;;;;;;2.15;1.67;;;21.40;92.00;;;;;;6280755;27;88581;-66
2022/11/23 03:06:24;;;;;;;2.05;1.50;;;21.30;92.00;;;;;;6273205;27;89209;-66
2022/11/23 03:09:27;;;;;;;1.90;1.70;;;21.30;92.10;;;;;;6282344;27;90216;-66
2022/11/23 03:12:30;;;;;;;2.65;1.95;;;21.30;92.10;;;;;;6280656;27;90280;-67
2022/11/23 03:15:32;;;;;;;2.72;1.92;;;21.30;92.10;;;;;;6279372;27;89198;-67
2022/11/23 03:18:34;;;;;;;2.10;1.88;;;21.30;92.00;;;;;;6276471;27;89348;-66
2022/11/23 03:21:36;;;;;;;2.45;1.83;;;21.30;92.10;;;;;;6281087;27;88959;-67
2022/11/23 03:24:38;;;;;;;1.73;1.60;;;21.30;92.00;;;;;;6271155;27;88028;-67
2022/11/23 03:27:42;;;;;;;1.92;1.70;;;21.30;92.00;;;;;;6281722;27;89230;-67
2022/11/23 03:30:44;;;;;;;2.05;1.70;;;21.30;92.10;;;;;;6281322;27;89175;-67
2022/11/23 03:33:46;;;;;;;1.52;1.35;;;21.30;92.10;;;;;;6280814;27;88467;-67
2022/11/23 03:36:48;;;;;;;1.77;1.65;;;21.30;92.10;;;;;;6278729;27;89138;-67
2022/11/23 03:39:50;;;;;;;2.15;1.67;;;21.20;92.10;;;;;;6280103;27;89367;-67
2022/11/23 03:42:54;;;;;;;2.20;1.70;;;21.20;92.10;;;;;;6279912;27;90227;-67
2022/11/23 03:45:55;;;;;;;1.75;1.65;;;21.20;92.10;;;;;;6279211;27;89195;-67
2022/11/23 03:48:57;;;;;;;1.65;1.55;;;21.20;92.10;;;;;;6268977;27;89548;-67
2022/11/23 03:51:59;;;;;;;3.35;1.85;;;21.20;92.10;;;;;;6280860;27;88995;-67
2022/11/23 03:55:01;;;;;;;2.60;1.88;;;21.20;92.10;;;;;;6280499;27;88099;-66
2022/11/23 03:58:05;;;;;;;2.35;1.90;;;21.20;92.10;;;;;;6280682;27;89203;-66
2022/11/23 04:01:07;;;;;;;2.22;1.70;;;21.20;92.10;;;;;;6273985;27;89339;-67
2022/11/23 04:04:09;;;;;;;3.28;2.00;;;21.20;92.10;;;;;;6277197;27;88505;-66
2022/11/23 04:07:11;;;;;;;3.85;2.00;;;21.20;92.10;;;;;;6271009;27;89312;-67
2022/11/23 04:10:14;;;;;;;2.20;1.90;;;21.20;92.00;;;;;;6266104;27;89342;-67
2022/11/23 04:13:17;;;;;;;1.83;1.63;;;21.10;92.00;;;;;;6279437;27;89803;-67
2022/11/23 04:16:19;;;;;;;3.13;1.70;;;21.10;92.10;;;;;;6271844;27;89172;-67
2022/11/23 04:19:22;;;;;;;1.70;1.60;;;21.10;92.10;;;;;;6279520;27;89245;-67
2022/11/23 04:22:24;;;;;;;1.70;1.60;;;21.10;92.00;;;;;;6273885;27;88600;-66
2022/11/23 04:25:26;;;;;;;1.60;1.50;;;21.10;91.90;;;;;;6274104;27;89237;-66
2022/11/23 04:28:29;;;;;;;1.85;1.63;;;21.10;92.00;;;;;;6279818;27;88161;-67
2022/11/23 04:31:31;;;;;;;2.78;2.08;;;21.10;92.40;;;;;;6279417;27;89550;-66
2022/11/23 04:34:33;;;;;;;4.57;2.60;;;21.10;92.00;;;;;;6277406;27;88385;-67
2022/11/23 04:37:36;;;;;;;2.35;1.77;;;21.10;92.00;;;;;;6280761;27;89208;-66
2022/11/23 04:40:38;;;;;;;1.70;1.60;;;21.10;91.90;;;;;;6279970;27;89135;-66
2022/11/23 04:43:41;;;;;;;1.77;1.50;;;21.20;91.90;;;;;;6278560;27;90065;-66
2022/11/23 04:46:43;;;;;;;1.70;1.60;;;21.20;91.90;;;;;;6268652;27;89178;-66
2022/11/23 04:49:45;;;;;;;1.80;1.70;;;21.20;91.90;;;;;;6277897;27;89195;-67
2022/11/23 04:52:47;;;;;;;2.00;1.80;;;21.20;91.80;;;;;;6279248;27;89159;-67
2022/11/23 04:55:49;;;;;;;1.90;1.63;;;21.20;91.80;;;;;;6276752;27;89088;-66
2022/11/23 04:58:53;;;;;;;2.88;2.08;;;21.20;91.80;;;;;;6273312;27;89220;-67
2022/11/23 05:01:55;;;;;;;2.45;2.00;;;21.20;91.80;;;;;;6275562;27;89157;-66
2022/11/23 05:04:57;;;;;;;2.10;1.88;;;21.20;91.70;;;;;;6278807;27;88442;-67
2022/11/23 05:07:59;;;;;;;1.90;1.70;;;21.30;91.70;;;;;;6279788;27;88892;-66
2022/11/23 05:11:01;;;;;;;1.88;1.60;;;21.30;91.70;;;;;;6279919;27;89225;-66
2022/11/23 05:14:04;;;;;;;1.58;1.45;;;21.30;91.70;;;;;;6276476;27;91888;-67
2022/11/23 05:17:06;;;;;;;1.50;1.40;;;21.30;91.70;;;;;;6280742;27;89150;-67
2022/11/23 05:20:10;;;;;;;1.60;1.50;;;21.40;91.70;;;;;;6282753;27;89135;-66
2022/11/23 05:23:12;;;;;;;2.53;1.88;;;21.40;91.70;;;;;;6282583;27;89023;-67
2022/11/23 05:26:14;;;;;;;1.88;1.60;;;21.40;91.60;;;;;;6285040;27;89107;-67
2022/11/23 05:29:18;;;;;;;2.22;1.73;;;21.30;91.60;;;;;;6283333;27;89177;-67
2022/11/23 05:32:20;;;;;;;1.88;1.60;;;21.40;91.60;;;;;;6281044;27;89538;-66
2022/11/23 05:35:22;;;;;;;1.65;1.42;;;21.40;91.60;;;;;;6282952;27;88644;-67
2022/11/23 05:38:24;;;;;;;1.60;1.50;;;21.40;91.60;;;;;;6268423;27;89131;-66
2022/11/23 05:41:26;;;;;;;1.83;1.67;;;21.40;91.50;;;;;;6277397;27;89206;-66
2022/11/23 05:44:29;;;;;;;1.60;1.40;;;21.40;91.50;;;;;;6283274;27;90140;-66
2022/11/23 05:47:31;;;;;;;1.65;1.55;;;21.50;91.50;;;;;;6282238;27;89225;-67
2022/11/23 05:50:33;;;;;;;1.98;1.70;;;21.50;91.50;;;;;;6282629;27;87527;-66
2022/11/23 05:53:36;;;;;;;3.88;2.40;;;21.50;91.20;;;;;;6282608;27;89036;-66
2022/11/23 05:56:38;;;;;;;4.88;2.05;;;21.50;89.50;;;;;;6282526;27;89167;-67
2022/11/23 05:59:41;;;;;;;2.05;1.70;;;21.50;88.60;;;;;;6278362;27;91067;-67
2022/11/23 06:02:43;;;;;;;4.05;1.85;;;21.50;88.60;;;;;;6275404;27;89170;-66
2022/11/23 06:05:47;;;;;;;2.38;1.60;;;21.50;89.40;;;;;;6282602;27;88349;-66
2022/11/23 06:08:49;;;;;;;2.65;1.70;;;21.50;88.60;;;;;;6275095;27;89174;-66
2022/11/23 06:11:51;;;;;;;2.88;1.70;;;21.50;88.60;;;;;;6277946;27;89161;-66
2022/11/23 06:14:54;;;;;;;3.90;1.60;;;21.50;88.70;;;;;;6282273;27;89401;-66
2022/11/23 06:17:59;;;;;;;2.90;1.65;;;21.50;88.80;;;;;;6282657;27;89117;-66
2022/11/23 06:21:02;;;;;;;3.63;1.60;;;21.50;88.80;;;;;;6280658;27;89050;-66
2022/11/23 06:24:05;;;;;;;4.30;1.80;;;21.50;88.90;;;;;;6270516;27;88867;-67
2022/11/23 06:27:07;;;;;;;3.47;1.80;;;21.50;88.90;;;;;;6280793;27;89422;-66
2022/11/23 06:30:12;;;;;;;2.72;1.70;;;21.50;88.90;;;;;;6282313;27;89096;-66
2022/11/23 06:33:14;;;;;;;1.98;1.60;;;21.50;88.90;;;;;;6281033;27;89490;-67
2022/11/23 06:36:16;;;;;;;3.67;1.95;;;21.50;88.90;;;;;;6283508;27;88425;-67
2022/11/23 06:39:18;;;;;;;2.40;1.77;;;21.50;88.90;;;;;;6281959;27;89009;-67
2022/11/23 06:42:20;;;;;;;3.28;1.70;;;21.50;88.90;;;;;;6283144;27;89080;-67
2022/11/23 06:45:23;;;;;;;2.78;1.65;;;21.50;88.90;;;;;;6281428;27;90062;-66
2022/11/23 06:48:25;;;;;;;2.05;1.50;;;21.50;89.00;;;;;;6282426;27;88891;-67
2022/11/23 06:51:27;;;;;;;3.17;1.90;;;21.50;89.00;;;;;;6281705;27;89728;-67
2022/11/23 06:54:29;;;;;;;3.75;1.92;;;21.50;89.10;;;;;;6277859;27;89538;-67
2022/11/23 06:57:31;;;;;;;3.10;1.80;;;21.60;90.00;;;;;;6276175;27;89208;-67
2022/11/23 07:00:35;;;;;;;2.35;1.58;;;21.60;89.20;;;;;;6270177;27;89089;-66
2022/11/23 07:03:37;;;;;;;1.65;1.55;;;21.60;89.20;;;;;;6283074;27;89887;-66
2022/11/23 07:06:41;;;;;;;2.10;1.73;;;21.60;89.20;;;;;;6282769;27;88502;-67
2022/11/23 07:09:43;;;;;;;3.10;1.70;;;21.60;89.30;;;;;;6276868;27;89244;-67
2022/11/23 07:12:45;;;;;;;2.00;1.60;;;21.50;89.20;;;;;;6280784;27;89115;-67
2022/11/23 07:15:48;;;;;;;3.28;1.58;;;21.60;89.30;;;;;;6265231;27;90093;-66
2022/11/23 07:18:50;;;;;;;2.78;1.50;;;21.60;89.30;;;;;;6280007;27;89318;-66
2022/11/23 07:21:53;;;;;;;2.88;1.80;;;21.60;89.30;;;;;;6266878;27;89162;-67
2022/11/23 07:24:55;;;;;;;1.55;1.45;;;21.60;89.30;;;;;;6277664;27;89173;-67
2022/11/23 07:27:57;;;;;;;3.05;1.58;;;21.60;89.30;;;;;;6280627;27;89145;-66
2022/11/23 07:31:01;;;;;;;2.33;1.45;;;21.60;89.40;;;;;;6277746;27;89206;-67
2022/11/23 07:34:03;;;;;;;1.98;1.40;;;21.60;90.00;;;;;;6272252;27;89101;-66
2022/11/23 07:37:05;;;;;;;2.17;1.63;;;21.60;89.40;;;;;;6278048;27;88383;-67
2022/11/23 07:40:09;;;;;;;2.13;1.60;;;21.60;89.40;;;;;;6281112;27;87819;-67
2022/11/23 07:43:11;;;;;;;1.85;1.48;;;21.60;89.40;;;;;;6280845;27;89379;-66
2022/11/23 07:46:14;;;;;;;2.25;1.55;;;21.60;89.40;;;;;;6279334;27;90188;-67
2022/11/23 07:49:16;;;;;;;2.00;1.52;;;21.60;89.40;;;;;;6279882;27;89176;-67
2022/11/23 07:52:18;;;;;;;2.88;1.60;;;21.60;89.40;;;;;;6277562;27;89223;-67
2022/11/23 07:55:21;;;;;;;3.88;2.00;;;21.60;89.40;;;;;;6266582;27;89159;-67
2022/11/23 07:58:22;;;;;;;2.47;1.50;;;21.60;89.40;;;;;;6273860;27;89224;-66
2022/11/23 08:01:26;;;;;;;1.67;1.40;;;21.60;89.40;;;;;;6267889;27;88089;-66
2022/11/23 08:04:28;;;;;;;3.10;1.63;;;21.60;89.40;;;;;;6280772;27;89296;-66
2022/11/23 08:07:30;;;;;;;2.00;1.35;;;21.60;89.40;;;;;;6274757;27;88626;-67
2022/11/23 08:10:33;;;;;;;2.13;1.40;;;21.60;89.50;;;;;;6267406;27;89097;-67
2022/11/23 08:13:36;;;;;;;2.50;1.63;;;21.60;89.60;;;;;;6277041;27;89114;-66
2022/11/23 08:16:39;;;;;;;2.22;1.50;;;21.60;89.50;;;;;;6274342;27;90075;-66
2022/11/23 08:19:41;;;;;;;2.58;1.63;;;21.60;89.50;;;;;;6279461;27;89282;-66
2022/11/23 08:22:43;;;;;;;2.20;1.50;;;21.60;89.50;;;;;;6273321;27;89327;-67
2022/11/23 08:25:45;;;;;;;2.25;1.42;;;21.60;89.50;;;;;;6275296;27;89871;-67
2022/11/23 08:28:47;;;;;;;1.50;1.40;;;21.60;89.50;;;;;;6272681;27;89099;-66
2022/11/23 08:31:51;;;;;;;1.50;1.40;;;21.70;89.60;;;;;;6280216;27;88396;-66
2022/11/23 08:34:53;;;;;;;3.40;1.90;;;21.70;89.60;;;;;;6279975;27;88233;-66
2022/11/23 08:37:55;;;;;;;1.88;1.60;;;21.70;90.20;;;;;;6280803;27;88908;-67
2022/11/23 08:40:58;;;;;;;2.65;1.50;;;21.70;89.60;;;;;;6267572;27;89008;-67
2022/11/23 08:44:00;;;;;;;2.58;1.77;;;21.70;89.60;;;;;;6267182;27;89210;-66
2022/11/23 08:47:04;;;;;;;2.40;1.55;;;21.70;89.60;;;;;;6278350;27;90483;-67
2022/11/23 08:50:07;;;;;;;1.83;1.58;;;21.70;89.60;;;;;;6282701;27;88137;-67
2022/11/23 08:53:09;;;;;;;2.35;1.60;;;21.70;89.60;;;;;;6284185;27;88937;-66
2022/11/23 08:56:11;;;;;;;1.60;1.40;;;21.70;89.60;;;;;;6284727;27;89108;-67
2022/11/23 08:59:15;;;;;;;2.38;1.58;;;21.70;89.80;;;;;;6271351;27;89279;-67
2022/11/23 09:02:19;;;;;;;1.50;1.38;;;21.70;89.80;;;;;;6272720;27;89164;-67
2022/11/23 09:05:21;;;;;;;1.60;1.40;;;21.70;89.80;;;;;;6284584;27;89185;-67
2022/11/23 09:08:23;;;;;;;1.40;1.30;;;21.70;89.70;;;;;;6279946;27;88523;-66
2022/11/23 09:11:25;;;;;;;2.05;1.60;;;21.60;89.70;;;;;;6273390;27;89010;-67
2022/11/23 09:14:28;;;;;;;1.77;1.42;;;21.70;89.70;;;;;;6283148;27;89013;-67
2022/11/23 09:17:32;;;;;;;2.05;1.60;;;21.70;89.70;;;;;;6278153;27;90205;-67
2022/11/23 09:20:34;;;;;;;1.70;1.45;;;21.70;89.70;;;;;;6284498;27;89116;-67
2022/11/23 09:23:37;;;;;;;1.92;1.42;;;21.80;89.80;;;;;;6271077;27;89630;-67
2022/11/23 09:26:39;;;;;;;3.70;2.00;;;21.70;89.70;;;;;;6282687;27;88198;-67
2022/11/23 09:29:41;;;;;;;2.58;1.58;;;21.70;89.80;;;;;;6283006;27;89333;-66
2022/11/23 09:32:44;;;;;;;2.10;1.50;;;21.70;89.70;;;;;;6283093;27;89232;-67
2022/11/23 09:35:46;;;;;;;1.77;1.40;;;21.70;89.80;;;;;;6283063;27;89035;-66
2022/11/23 09:38:49;;;;;;;1.80;1.50;;;21.70;89.80;;;;;;6284589;27;88303;-67
2022/11/23 09:42:21;;;;;;;1.83;1.50;;;21.70;89.80;;;;;;6276430;27;87900;-66
2022/11/23 09:45:30;;;;;;;1.70;1.40;;;21.80;89.90;;;;;;6282826;27;89228;-67
2022/11/23 09:48:47;;;;;;;1.50;1.40;;;21.70;89.80;;;;;;6280344;27;90328;-66
2022/11/23 09:51:54;;;;;;;2.33;1.52;;;21.80;89.90;;;;;;6283143;27;87894;-67
2022/11/23 09:55:00;;;;;;;1.40;1.30;;;21.70;89.90;;;;;;6282971;27;88037;-67
2022/11/23 09:58:05;;;;;;;2.42;1.58;;;21.80;89.90;;;;;;6268600;27;89563;-67
2022/11/23 10:01:12;;;;;;;1.52;1.40;;;21.70;89.90;;;;;;6278581;27;89336;-66
2022/11/23 10:04:18;;;;;;;1.75;1.50;;;21.70;89.90;;;;;;6270175;27;89228;-67
2022/11/23 10:07:38;;;;;;;2.55;1.60;;;21.80;90.00;;;;;;6282506;27;89233;-67
2022/11/23 10:10:43;;;;;;;1.73;1.40;;;21.80;90.00;;;;;;6275982;27;89793;-66
2022/11/23 10:13:56;;;;;;;2.00;1.50;;;21.70;90.00;;;;;;6282953;27;89182;-67
2022/11/23 10:17:08;;;;;;;1.60;1.50;;;21.70;90.00;;;;;;6280094;27;89280;-66
2022/11/23 10:20:28;;;;;;;1.92;1.50;;;21.70;90.00;;;;;;6280193;27;90080;-67
2022/11/23 10:23:44;;;;;;;1.70;1.40;;;21.70;90.00;;;;;;6275906;27;88934;-66
2022/11/23 10:26:49;;;;;;;1.60;1.50;;;21.70;90.00;;;;;;6282148;27;89128;-66
2022/11/23 10:29:52;;;;;;;1.70;1.40;;;21.70;90.10;;;;;;6282416;27;90062;-66
2022/11/23 10:33:00;;;;;;;1.40;1.30;;;21.70;90.10;;;;;;6273922;27;89082;-67
2022/11/23 10:36:04;;;;;;;1.30;1.20;;;21.60;90.20;;;;;;6282547;27;89205;-66
2022/11/23 10:39:16;;;;;;;1.50;1.40;;;21.60;90.10;;;;;;6281724;27;89512;-67
2022/11/23 10:42:24;;;;;;;1.55;1.25;;;21.70;90.20;;;;;;6282443;27;88578;-67
2022/11/23 10:45:28;;;;;;;3.08;1.90;;;21.70;90.10;;;;;;6281949;27;89155;-66
2022/11/23 10:48:35;;;;;;;1.77;1.40;;;21.70;90.10;;;;;;6283719;27;89572;-67
2022/11/23 10:51:39;;;;;;;1.60;1.40;;;21.70;90.10;;;;;;6270291;27;89909;-67
2022/11/23 10:54:52;;;;;;;1.42;1.33;;;21.70;90.10;;;;;;6279774;27;89311;-67
2022/11/23 10:57:55;;;;;;;1.60;1.45;;;21.70;90.10;;;;;;6269833;27;89162;-66
2022/11/23 11:01:02;;;;;;;3.53;2.05;;;21.70;90.10;;;;;;6266888;27;89000;-66
2022/11/23 11:04:04;;;;;;;2.53;1.67;;;21.70;90.10;;;;;;6282253;27;89642;-66
2022/11/23 11:07:28;;;;;;;1.70;1.50;;;21.70;90.10;;;;;;6277944;27;88996;-66
2022/11/23 11:10:38;;;;;;;1.30;1.20;;;21.70;90.10;;;;;;6266665;27;89155;-67
2022/11/23 11:13:42;;;;;;;1.65;1.50;;;21.70;90.10;;;;;;6282205;27;88469;-67
2022/11/23 11:16:48;;;;;;;1.70;1.40;;;21.70;90.10;;;;;;6277502;27;89118;-66
2022/11/23 11:19:50;;;;;;;1.80;1.40;;;21.70;90.10;;;;;;6280398;27;89116;-67
2022/11/23 11:22:54;;;;;;;1.42;1.30;;;21.70;90.10;;;;;;6269245;27;90088;-67
2022/11/23 11:26:06;;;;;;;1.90;1.27;;;21.80;90.10;;;;;;6269260;27;89208;-67
2022/11/23 11:29:29;;;;;;;1.77;1.52;;;21.80;90.10;;;;;;6278788;27;89199;-66
2022/11/23 11:32:40;;;;;;;2.20;1.52;;;21.70;90.10;;;;;;6277669;27;89880;-66
2022/11/23 11:35:47;;;;;;;1.50;1.40;;;21.70;90.10;;;;;;6281288;27;89222;-66
2022/11/23 11:38:55;;;;;;;1.48;1.30;;;21.80;90.20;;;;;;6280634;27;89276;-66
2022/11/23 11:42:02;;;;;;;1.95;1.30;;;21.80;90.20;;;;;;6280279;27;89100;-66
2022/11/23 11:45:13;;;;;;;1.77;1.55;;;21.80;90.20;;;;;;6282946;27;88566;-66
2022/11/23 11:48:20;;;;;;;1.38;1.25;;;21.80;90.20;;;;;;6280761;27;89190;-66
2022/11/23 11:51:26;;;;;;;1.70;1.48;;;21.80;90.20;;;;;;6280579;27;89613;-66
2022/11/23 11:54:35;;;;;;;1.40;1.30;;;21.80;90.20;;;;;;6279694;27;90118;-67
2022/11/23 11:57:44;;;;;;;1.58;1.48;;;21.80;90.20;;;;;;6271732;27;89115;-66
2022/11/23 12:00:48;;;;;;;2.85;1.75;;;21.80;90.20;;;;;;6264602;27;89294;-66
2022/11/23 12:03:55;;;;;;;1.60;1.42;;;21.80;90.20;;;;;;6281494;27;89251;-67
2022/11/23 12:07:05;;;;;;;1.73;1.58;;;21.70;90.20;;;;;;6266275;27;89256;-67
2022/11/23 12:10:14;;;;;;;1.85;1.60;;;21.80;90.20;;;;;;6268151;27;89167;-67
2022/11/23 12:13:19;;;;;;;1.40;1.30;;;21.80;90.20;;;;;;6279762;27;89216;-67
2022/11/23 12:16:30;;;;;;;1.60;1.50;;;21.80;90.20;;;;;;6277094;27;88165;-67
2022/11/23 12:19:40;;;;;;;1.67;1.33;;;21.80;90.20;;;;;;6279208;27;89095;-67
2022/11/23 12:22:52;;;;;;;1.70;1.40;;;21.80;90.20;;;;;;6270925;27;88121;-67
2022/11/23 12:26:08;;;;;;;1.58;1.45;;;21.80;90.30;;;;;;6262467;27;90186;-67
2022/11/23 12:29:38;;;;;;;1.55;1.33;;;21.80;90.30;;;;;;6280158;27;89194;-67
2022/11/23 12:32:51;;;;;;;1.70;1.40;;;21.80;90.20;;;;;;6266785;27;88144;-67
2022/11/23 12:36:13;;;;;;;1.65;1.40;;;21.80;90.30;;;;;;6268130;27;89166;-66
2022/11/23 12:39:32;;;;;;;1.35;1.25;;;21.80;90.30;;;;;;6268341;27;89232;-66
2022/11/23 12:42:42;;;;;;;2.25;1.65;;;21.80;90.30;;;;;;6269750;27;89051;-66
2022/11/23 12:45:56;;;;;;;1.70;1.48;;;21.80;90.30;;;;;;6272610;27;89159;-67
2022/11/23 12:49:12;;;;;;;1.42;1.33;;;21.80;90.30;;;;;;6280921;27;88322;-67
2022/11/23 12:52:32;;;;;;;1.77;1.40;;;21.80;90.30;;;;;;6278426;27;89292;-67
2022/11/23 12:55:46;;;;;;;1.58;1.27;;;21.80;90.30;;;;;;6278738;27;87989;-67
2022/11/23 12:58:52;;;;;;;2.03;1.52;;;21.80;90.30;;;;;;6267357;27;90166;-67
2022/11/23 13:02:03;;;;;;;1.52;1.42;;;21.80;90.70;;;;;;6267023;27;89151;-66
2022/11/23 13:05:42;;;;;;;1.60;1.40;;;21.80;90.30;;;;;;6279255;27;89175;-67
2022/11/23 13:09:03;;;;;;;1.60;1.50;;;21.80;90.30;;;;;;6226127;27;89274;-66
2022/11/23 13:12:23;;;;;;;1.50;1.35;;;21.80;90.30;;;;;;6268789;27;89175;-67
2022/11/23 13:15:47;;;;;;;1.50;1.40;;;21.80;90.30;;;;;;6276792;27;88157;-66
2022/11/23 13:19:09;;;;;;;1.63;1.40;;;21.80;90.30;;;;;;6277568;27;89475;-66
2022/11/23 13:22:14;;;;;;;1.40;1.30;;;21.80;90.30;;;;;;6277919;27;91149;-66
2022/11/23 13:25:23;;;;;;;1.42;1.33;;;21.80;90.30;;;;;;6278871;27;89704;-67
2022/11/23 13:28:30;;;;;;;1.35;1.15;;;21.80;90.30;;;;;;6277799;27;89178;-66
2022/11/23 13:31:35;;;;;;;3.13;1.80;;;21.80;90.30;;;;;;6277109;27;89449;-66
2022/11/23 13:34:45;;;;;;;2.28;1.67;;;21.80;90.30;;;;;;6279468;27;88871;-66
2022/11/23 13:38:23;;;;;;;2.03;1.52;;;21.80;90.30;;;;;;6271348;27;89228;-66
2022/11/23 13:42:00;;;;;;;1.50;1.40;;;21.80;90.30;;;;;;6275234;27;89159;-66
2022/11/23 13:45:30;;;;;;;1.70;1.40;;;21.80;90.30;;;;;;6274572;27;87834;-65
2022/11/23 13:48:43;;;;;;;1.38;1.27;;;21.80;90.30;;;;;;6235186;27;89269;-67
2022/11/23 13:52:22;;;;;;;1.50;1.40;;;21.80;90.30;;;;;;6269309;27;89244;-66
2022/11/23 13:55:33;;;;;;;1.55;1.30;;;21.80;90.30;;;;;;6273525;27;88362;-66
2022/11/23 13:58:49;;;;;;;1.40;1.27;;;21.80;90.30;;;;;;6270576;27;89373;-67
2022/11/23 14:02:27;;;;;;;1.80;1.60;;;21.80;90.30;;;;;;6270670;27;89089;-66
2022/11/23 14:05:56;;;;;;;1.73;1.50;;;21.80;90.30;;;;;;6271497;27;90085;-66
2022/11/23 14:09:04;;;;;;;1.75;1.33;;;21.80;90.30;;;;;;6276242;27;89150;-66
2022/11/23 14:12:18;;;;;;;1.73;1.40;;;21.80;90.40;;;;;;6283454;27;88086;-67
2022/11/23 14:15:22;;;;;;;1.73;1.52;;;21.80;90.40;;;;;;6282521;27;89319;-66
2022/11/23 14:18:53;;;;;;;1.80;1.52;;;21.80;90.80;;;;;;6276561;27;89304;-66
2022/11/23 14:22:06;;;;;;;1.77;1.50;;;21.80;90.40;;;;;;6279617;27;89205;-66
2022/11/23 14:25:34;;;;;;;1.65;1.40;;;21.80;90.30;;;;;;6273881;27;89221;-66
2022/11/23 14:28:48;;;;;;;1.60;1.50;;;21.80;90.40;;;;;;6283676;27;87185;-66
2022/11/23 14:32:05;;;;;;;1.80;1.50;;;21.80;90.40;;;;;;6280770;27;88842;-66
2022/11/23 14:35:24;;;;;;;1.58;1.40;;;21.80;90.40;;;;;;6282891;27;89513;-66
2022/11/23 14:38:51;;;;;;;1.50;1.40;;;21.80;90.30;;;;;;6264272;27;90350;-66
2022/11/23 14:41:58;;;;;;;1.60;1.42;;;21.80;90.40;;;;;;6275646;27;89378;-66
2022/11/23 14:45:04;;;;;;;1.70;1.60;;;21.80;90.40;;;;;;6283093;27;89410;-66
2022/11/23 14:48:22;;;;;;;1.85;1.65;;;21.80;90.40;;;;;;6281635;27;89311;-66
2022/11/23 14:51:26;;;;;;;1.50;1.40;;;21.80;90.30;;;;;;6276372;27;89702;-67
2022/11/23 14:54:29;;;;;;;1.75;1.60;;;21.90;90.40;;;;;;6282082;27;89485;-66
2022/11/23 14:57:39;;;;;;;1.88;1.55;;;21.80;90.30;;;;;;6280961;27;89102;-66
2022/11/23 15:00:43;;;;;;;1.92;1.60;;;21.80;90.40;;;;;;6276565;27;88425;-66
2022/11/23 15:03:56;;;;;;;1.50;1.35;;;21.80;90.30;;;;;;6277038;27;89645;-67
2022/11/23 15:07:03;;;;;;;1.63;1.52;;;21.80;90.30;;;;;;6278438;27;89220;-67
2022/11/23 15:10:16;;;;;;;1.65;1.55;;;21.80;90.40;;;;;;6267419;27;90104;-67
2022/11/23 15:13:21;;;;;;;2.40;1.58;;;21.80;90.40;;;;;;6282110;27;90499;-67
2022/11/23 15:16:23;;;;;;;1.50;1.40;;;21.80;90.30;;;;;;6281345;27;89077;-66
2022/11/23 15:19:28;;;;;;;3.38;1.95;;;21.80;90.30;;;;;;6278850;27;89190;-67
2022/11/23 15:22:31;;;;;;;3.15;1.70;;;21.80;90.40;;;;;;6269561;27;89361;-66
2022/11/23 15:25:35;;;;;;;1.80;1.45;;;21.80;90.40;;;;;;6270420;27;88066;-66
2022/11/23 15:28:37;;;;;;;1.70;1.60;;;21.80;90.40;;;;;;6281240;27;90482;-66
2022/11/23 15:31:39;;;;;;;1.75;1.60;;;21.80;90.40;;;;;;6281142;27;88454;-66
2022/11/23 15:34:42;;;;;;;1.60;1.50;;;21.80;90.40;;;;;;6280459;27;89102;-67
2022/11/23 15:37:46;;;;;;;1.92;1.75;;;21.80;90.40;;;;;;6277441;27;88256;-66
2022/11/23 15:40:50;;;;;;;1.92;1.55;;;21.80;90.40;;;;;;6279382;27;90238;-66
2022/11/23 15:43:54;;;;;;;2.83;1.85;;;21.80;90.40;;;;;;6280243;27;89251;-67
2022/11/23 15:47:00;;;;;;;2.30;1.73;;;21.80;90.40;;;;;;6281006;27;89624;-66
2022/11/23 15:50:09;;;;;;;1.75;1.58;;;21.80;90.30;;;;;;6281510;27;87942;-67
2022/11/23 15:53:12;;;;;;;2.08;1.73;;;21.80;90.40;;;;;;6281274;27;89081;-66
2022/11/23 15:56:23;;;;;;;1.63;1.52;;;21.80;90.40;;;;;;6270391;27;88016;-66
2022/11/23 15:59:32;;;;;;;1.70;1.60;;;21.80;90.30;;;;;;6275579;27;90067;-66
2022/11/23 16:02:35;;;;;;;1.95;1.75;;;21.80;90.30;;;;;;6280029;27;88386;-66
2022/11/23 16:05:37;;;;;;;1.92;1.73;;;21.90;90.40;;;;;;6279904;27;88991;-66
2022/11/23 16:08:40;;;;;;;2.30;1.73;;;21.80;90.30;;;;;;6265053;27;89359;-66
2022/11/23 16:11:45;;;;;;;2.10;1.80;;;21.80;90.30;;;;;;6273851;27;90172;-67